createdAt,value
2023-07-20T00:00:22.032Z,98588.53
2023-07-20T00:01:23.749Z,98586.69
2023-07-20T00:02:25.518Z,98586.25
2023-07-20T00:03:27.225Z,98585.81
2023-07-20T00:04:28.972Z,98588.06
2023-07-20T00:05:30.706Z,98582.31
2023-07-20T00:06:32.344Z,98579.41
2023-07-20T00:07:33.990Z,98578.59
2023-07-20T00:08:35.628Z,98574.50
2023-07-20T00:09:37.381Z,98579.66
2023-07-20T00:10:39.015Z,98571.38
2023-07-20T00:11:40.816Z,98570.59
2023-07-20T00:12:42.457Z,98573.66
2023-07-20T00:13:44.488Z,98571.34
2023-07-20T00:14:46.152Z,98573.00
2023-07-20T00:15:48.440Z,98581.63
2023-07-20T00:16:52.831Z,98574.78
2023-07-20T00:17:54.583Z,98577.47
2023-07-20T00:18:56.301Z,98568.63
2023-07-20T00:19:57.934Z,98568.84
2023-07-20T00:20:59.611Z,98574.63
2023-07-20T00:22:01.258Z,98571.97
2023-07-20T00:23:02.849Z,98571.13
2023-07-20T00:24:04.757Z,98567.41
2023-07-20T00:25:06.583Z,98565.56
2023-07-20T00:26:08.367Z,98562.44
2023-07-20T00:27:10.056Z,98562.44
2023-07-20T00:28:11.725Z,98560.38
2023-07-20T00:29:13.409Z,98559.56
2023-07-20T00:30:16.103Z,98565.28
2023-07-20T00:31:18.946Z,98569.16
2023-07-20T00:32:20.718Z,98569.41
2023-07-20T00:33:22.344Z,98572.97
2023-07-20T00:34:23.998Z,98568.78
2023-07-20T00:35:25.618Z,98571.41
2023-07-20T00:36:27.282Z,98571.66
2023-07-20T00:37:29.034Z,98573.84
2023-07-20T00:38:30.665Z,98578.47
2023-07-20T00:39:32.336Z,98571.41
2023-07-20T00:40:41.893Z,98569.09
2023-07-20T00:41:43.667Z,98560.19
2023-07-20T00:42:45.585Z,98559.34
2023-07-20T00:43:47.362Z,98555.63
2023-07-20T00:44:48.992Z,98555.03
2023-07-20T00:45:50.735Z,98560.59
2023-07-20T00:46:53.573Z,98560.97
2023-07-20T00:47:55.470Z,98554.59
2023-07-20T00:48:57.418Z,98569.59
2023-07-20T00:49:59.343Z,98572.88
2023-07-20T00:51:02.749Z,98570.34
2023-07-20T00:52:07.537Z,98570.97
2023-07-20T00:53:09.648Z,98575.69
2023-07-20T00:54:11.400Z,98572.22
2023-07-20T00:55:13.370Z,98571.84
2023-07-20T00:56:16.052Z,98578.59
2023-07-20T00:57:18.504Z,98577.78
2023-07-20T00:58:20.262Z,98589.06
2023-07-20T00:59:22.592Z,98593.66
2023-07-20T01:00:25.108Z,98604.63
2023-07-20T01:01:26.850Z,98610.91
2023-07-20T01:02:28.522Z,98609.53
2023-07-20T01:03:30.347Z,98606.22
2023-07-20T01:04:32.396Z,98607.03
2023-07-20T01:05:43.593Z,98602.09
2023-07-20T01:06:59.058Z,98596.53
2023-07-20T01:08:08.520Z,98603.53
2023-07-20T01:09:17.927Z,98600.66
2023-07-20T01:10:28.346Z,98605.19
2023-07-20T01:11:53.535Z,98615.69
2023-07-20T01:12:56.371Z,98618.88
2023-07-20T01:13:58.950Z,98621.97
2023-07-20T01:15:01.018Z,98622.41
2023-07-20T01:16:03.085Z,98628.81
2023-07-20T01:17:05.078Z,98625.34
2023-07-20T01:18:06.778Z,98619.38
2023-07-20T01:19:08.594Z,98621.22
2023-07-20T01:20:14.308Z,98619.16
2023-07-20T01:21:25.284Z,98611.72
2023-07-20T01:23:04.476Z,98621.63
2023-07-20T01:24:14.538Z,98619.97
2023-07-20T01:25:46.894Z,98623.50
2023-07-20T01:27:01.453Z,98624.56
2023-07-20T01:28:24.669Z,98612.22
2023-07-20T01:29:48.957Z,98622.44
2023-07-20T01:31:18.135Z,98616.72
2023-07-20T01:32:21.757Z,98628.25
2023-07-20T01:33:26.055Z,98614.47
2023-07-20T01:34:28.561Z,98618.38
2023-07-20T01:35:31.571Z,98624.75
2023-07-20T01:36:36.314Z,98619.22
2023-07-20T01:37:39.133Z,98616.38
2023-07-20T01:38:41.430Z,98614.72
2023-07-20T01:39:43.124Z,98607.34
2023-07-20T01:40:44.780Z,98606.31
2023-07-20T01:41:47.000Z,98614.97
2023-07-20T01:42:48.743Z,98616.59
2023-07-20T01:43:50.338Z,98621.72
2023-07-20T01:44:52.768Z,98614.34
2023-07-20T01:45:54.473Z,98621.50
2023-07-20T01:46:56.411Z,98614.13
2023-07-20T01:47:58.216Z,98615.75
2023-07-20T01:49:00.131Z,98610.84
2023-07-20T01:50:01.964Z,98617.00
2023-07-20T01:51:03.661Z,98620.31
2023-07-20T01:52:05.721Z,98621.53
2023-07-20T01:53:07.463Z,98625.41
2023-07-20T01:54:09.061Z,98625.41
2023-07-20T01:55:11.586Z,98620.69
2023-07-20T01:56:13.235Z,98614.97
2023-07-20T01:57:14.850Z,98613.31
2023-07-20T01:58:16.487Z,98619.25
2023-07-20T01:59:18.140Z,98626.22
2023-07-20T02:00:19.998Z,98623.97
2023-07-20T02:01:21.914Z,98613.69
2023-07-20T02:02:28.262Z,98612.47
2023-07-20T02:03:30.295Z,98609.81
2023-07-20T02:04:32.012Z,98610.03
2023-07-20T02:05:33.945Z,98610.66
2023-07-20T02:06:35.580Z,98614.97
2023-07-20T02:07:37.270Z,98621.34
2023-07-20T02:08:38.905Z,98627.28
2023-07-20T02:09:40.507Z,98627.28
2023-07-20T02:10:43.233Z,98628.69
2023-07-20T02:11:44.886Z,98621.53
2023-07-20T02:12:46.519Z,98627.06
2023-07-20T02:13:48.338Z,98620.09
2023-07-20T02:14:50.649Z,98612.91
2023-07-20T02:15:52.330Z,98618.66
2023-07-20T02:16:54.028Z,98625.03
2023-07-20T02:17:55.980Z,98623.78
2023-07-20T02:18:57.623Z,98614.34
2023-07-20T02:19:59.293Z,98624.63
2023-07-20T02:21:00.907Z,98621.72
2023-07-20T02:22:02.751Z,98612.09
2023-07-20T02:23:04.503Z,98620.09
2023-07-20T02:24:06.415Z,98617.63
2023-07-20T02:25:08.964Z,98613.72
2023-07-20T02:26:10.633Z,98610.25
2023-07-20T02:27:12.298Z,98619.06
2023-07-20T02:28:15.160Z,98621.13
2023-07-20T02:29:16.828Z,98622.34
2023-07-20T02:30:18.514Z,98625.22
2023-07-20T02:31:20.241Z,98622.56
2023-07-20T02:32:21.939Z,98619.88
2023-07-20T02:33:23.895Z,98627.06
2023-07-20T02:34:25.710Z,98627.28
2023-07-20T02:35:27.357Z,98622.91
2023-07-20T02:36:29.008Z,98625.16
2023-07-20T02:37:30.818Z,98627.84
2023-07-20T02:38:32.480Z,98625.34
2023-07-20T02:39:34.436Z,98633.53
2023-07-20T02:40:36.403Z,98634.16
2023-07-20T02:41:38.092Z,98628.22
2023-07-20T02:42:39.753Z,98642.13
2023-07-20T02:43:41.485Z,98641.53
2023-07-20T02:44:43.249Z,98644.19
2023-07-20T02:45:45.175Z,98641.53
2023-07-20T02:46:47.057Z,98647.47
2023-07-20T02:47:48.986Z,98659.41
2023-07-20T02:48:50.709Z,98653.69
2023-07-20T02:49:52.370Z,98657.34
2023-07-20T02:50:54.153Z,98654.69
2023-07-20T02:51:55.829Z,98655.28
2023-07-20T02:52:57.499Z,98655.28
2023-07-20T02:53:59.821Z,98656.72
2023-07-20T02:55:01.560Z,98652.19
2023-07-20T02:56:03.285Z,98657.31
2023-07-20T02:57:05.180Z,98660.41
2023-07-20T02:58:06.952Z,98654.22
2023-07-20T02:59:08.893Z,98651.97
2023-07-20T03:00:11.243Z,98651.56
2023-07-20T03:01:13.201Z,98650.75
2023-07-20T03:02:14.863Z,98645.81
2023-07-20T03:03:16.690Z,98651.81
2023-07-20T03:04:18.567Z,98646.25
2023-07-20T03:05:20.211Z,98643.59
2023-07-20T03:06:22.177Z,98637.09
2023-07-20T03:07:23.983Z,98643.88
2023-07-20T03:08:25.660Z,98641.59
2023-07-20T03:09:27.264Z,98644.69
2023-07-20T03:10:29.000Z,98654.75
2023-07-20T03:11:33.535Z,98652.50
2023-07-20T03:12:35.191Z,98651.28
2023-07-20T03:13:37.066Z,98646.53
2023-07-20T03:14:38.765Z,98653.72
2023-07-20T03:15:40.512Z,98650.84
2023-07-20T03:16:42.210Z,98651.47
2023-07-20T03:17:43.923Z,98651.47
2023-07-20T03:18:45.963Z,98657.22
2023-07-20T03:19:47.563Z,98660.50
2023-07-20T03:20:49.234Z,98650.44
2023-07-20T03:21:50.858Z,98656.19
2023-07-20T03:22:52.699Z,98651.91
2023-07-20T03:23:54.417Z,98657.66
2023-07-20T03:24:56.085Z,98653.13
2023-07-20T03:25:57.751Z,98656.00
2023-07-20T03:26:59.575Z,98652.09
2023-07-20T03:28:01.252Z,98649.22
2023-07-20T03:29:03.725Z,98648.81
2023-07-20T03:30:06.094Z,98654.56
2023-07-20T03:31:08.966Z,98655.16
2023-07-20T03:32:13.989Z,98657.03
2023-07-20T03:33:15.938Z,98666.69
2023-07-20T03:34:17.688Z,98661.13
2023-07-20T03:35:19.310Z,98659.69
2023-07-20T03:36:21.070Z,98655.41
2023-07-20T03:37:22.930Z,98659.06
2023-07-20T03:38:25.111Z,98663.41
2023-07-20T03:39:27.035Z,98667.47
2023-07-20T03:40:28.781Z,98674.25
2023-07-20T03:41:30.528Z,98670.38
2023-07-20T03:42:32.176Z,98663.78
2023-07-20T03:43:33.798Z,98665.44
2023-07-20T03:44:35.516Z,98660.09
2023-07-20T03:45:37.110Z,98659.47
2023-07-20T03:46:39.573Z,98662.75
2023-07-20T03:47:41.535Z,98664.19
2023-07-20T03:48:43.201Z,98663.69
2023-07-20T03:49:44.829Z,98653.78
2023-07-20T03:50:48.203Z,98660.72
2023-07-20T03:51:49.845Z,98657.16
2023-07-20T03:52:51.521Z,98664.31
2023-07-20T03:53:53.198Z,98664.31
2023-07-20T03:54:54.906Z,98680.28
2023-07-20T03:55:56.493Z,98685.94
2023-07-20T03:56:58.184Z,98679.00
2023-07-20T03:57:59.927Z,98677.78
2023-07-20T03:59:01.669Z,98675.59
2023-07-20T04:00:04.079Z,98681.75
2023-07-20T04:01:14.389Z,98687.59
2023-07-20T04:02:16.732Z,98685.47
2023-07-20T04:03:24.646Z,98693.66
2023-07-20T04:04:26.713Z,98697.22
2023-07-20T04:05:28.568Z,98696.88
2023-07-20T04:06:30.181Z,98701.06
2023-07-20T04:07:31.788Z,98704.38
2023-07-20T04:08:33.470Z,98702.34
2023-07-20T04:09:35.289Z,98702.56
2023-07-20T04:10:36.955Z,98707.69
2023-07-20T04:11:38.631Z,98715.31
2023-07-20T04:12:40.573Z,98715.06
2023-07-20T04:13:42.257Z,98713.22
2023-07-20T04:14:43.905Z,98718.31
2023-07-20T04:15:45.893Z,98718.34
2023-07-20T04:16:48.719Z,98717.31
2023-07-20T04:17:50.387Z,98719.34
2023-07-20T04:18:52.043Z,98725.94
2023-07-20T04:19:54.076Z,98722.88
2023-07-20T04:20:55.724Z,98727.63
2023-07-20T04:21:57.354Z,98718.41
2023-07-20T04:22:59.052Z,98719.63
2023-07-20T04:24:00.736Z,98724.34
2023-07-20T04:25:02.357Z,98722.09
2023-07-20T04:26:04.019Z,98722.50
2023-07-20T04:27:05.955Z,98721.25
2023-07-20T04:28:09.949Z,98728.63
2023-07-20T04:29:13.658Z,98733.72
2023-07-20T04:30:19.245Z,98729.22
2023-07-20T04:31:21.012Z,98727.19
2023-07-20T04:32:22.762Z,98730.06
2023-07-20T04:33:24.419Z,98734.59
2023-07-20T04:34:26.153Z,98727.59
2023-07-20T04:35:50.812Z,98726.91
2023-07-20T04:36:55.090Z,98730.91
2023-07-20T04:37:58.137Z,98732.50
2023-07-20T04:39:00.611Z,98728.63
2023-07-20T04:40:09.790Z,98737.13
2023-07-20T04:41:11.513Z,98739.75
2023-07-20T04:42:16.394Z,98741.00
2023-07-20T04:43:19.139Z,98742.88
2023-07-20T04:44:20.869Z,98739.94
2023-07-20T04:45:22.503Z,98740.31
2023-07-20T04:46:24.342Z,98743.16
2023-07-20T04:47:26.339Z,98732.66
2023-07-20T04:48:28.140Z,98733.38
2023-07-20T04:49:31.141Z,98736.78
2023-07-20T04:50:32.867Z,98744.53
2023-07-20T04:51:34.529Z,98749.72
2023-07-20T04:52:42.780Z,98745.78
2023-07-20T04:53:48.612Z,98747.16
2023-07-20T04:54:51.353Z,98751.47
2023-07-20T04:55:53.386Z,98756.16
2023-07-20T04:56:56.050Z,98755.38
2023-07-20T04:57:59.226Z,98745.91
2023-07-20T04:59:01.216Z,98742.06
2023-07-20T05:00:03.294Z,98743.16
2023-07-20T05:01:05.510Z,98742.75
2023-07-20T05:02:09.005Z,98751.59
2023-07-20T05:03:10.903Z,98751.81
2023-07-20T05:04:12.713Z,98754.69
2023-07-20T05:05:14.374Z,98756.19
2023-07-20T05:06:16.165Z,98752.84
2023-07-20T05:07:17.840Z,98745.91
2023-07-20T05:08:19.595Z,98747.78
2023-07-20T05:09:22.441Z,98751.88
2023-07-20T05:10:25.361Z,98755.00
2023-07-20T05:11:27.033Z,98752.75
2023-07-20T05:12:29.520Z,98750.69
2023-07-20T05:13:31.285Z,98750.69
2023-07-20T05:14:33.049Z,98757.88
2023-07-20T05:15:35.033Z,98755.81
2023-07-20T05:16:38.404Z,98762.09
2023-07-20T05:17:41.451Z,98754.09
2023-07-20T05:18:43.162Z,98749.78
2023-07-20T05:19:45.346Z,98754.81
2023-07-20T05:20:50.469Z,98757.91
2023-07-20T05:21:52.089Z,98761.38
2023-07-20T05:22:53.808Z,98758.88
2023-07-20T05:23:55.762Z,98761.19
2023-07-20T05:24:57.576Z,98765.09
2023-07-20T05:26:00.509Z,98762.63
2023-07-20T05:27:02.162Z,98762.03
2023-07-20T05:28:04.110Z,98762.25
2023-07-20T05:29:05.825Z,98754.28
2023-07-20T05:30:08.486Z,98763.75
2023-07-20T05:31:10.187Z,98757.38
2023-07-20T05:32:11.803Z,98745.69
2023-07-20T05:33:13.504Z,98762.50
2023-07-20T05:34:15.187Z,98757.78
2023-07-20T05:35:16.810Z,98761.09
2023-07-20T05:36:18.600Z,98755.53
2023-07-20T05:37:20.276Z,98762.13
2023-07-20T05:38:21.912Z,98754.34
2023-07-20T05:39:23.664Z,98759.91
2023-07-20T05:40:25.294Z,98761.53
2023-07-20T05:41:27.070Z,98765.03
2023-07-20T05:42:28.671Z,98766.66
2023-07-20T05:43:30.603Z,98760.50
2023-07-20T05:44:32.221Z,98767.47
2023-07-20T05:45:33.981Z,98764.78
2023-07-20T05:46:46.673Z,98760.44
2023-07-20T05:47:57.046Z,98764.28
2023-07-20T05:48:58.734Z,98754.28
2023-07-20T05:50:00.329Z,98763.63
2023-07-20T05:51:02.025Z,98763.25
2023-07-20T05:52:03.920Z,98756.00
2023-07-20T05:53:05.855Z,98758.06
2023-07-20T05:54:07.623Z,98764.22
2023-07-20T05:55:09.519Z,98755.22
2023-07-20T05:56:11.191Z,98758.03
2023-07-20T05:57:12.918Z,98757.63
2023-07-20T05:58:14.556Z,98747.78
2023-07-20T05:59:16.361Z,98750.34
2023-07-20T06:00:18.555Z,98753.19
2023-07-20T06:01:20.647Z,98749.41
2023-07-20T06:02:22.411Z,98747.81
2023-07-20T06:03:24.037Z,98754.13
2023-07-20T06:04:25.705Z,98756.84
2023-07-20T06:05:29.411Z,98751.06
2023-07-20T06:06:31.381Z,98761.47
2023-07-20T06:07:33.070Z,98751.50
2023-07-20T06:08:34.779Z,98757.94
2023-07-20T06:09:36.461Z,98750.34
2023-07-20T06:10:38.459Z,98759.44
2023-07-20T06:11:40.249Z,98759.34
2023-07-20T06:12:41.931Z,98762.44
2023-07-20T06:13:43.629Z,98762.88
2023-07-20T06:14:45.240Z,98766.03
2023-07-20T06:15:47.132Z,98764.59
2023-07-20T06:16:49.092Z,98754.16
2023-07-20T06:17:50.747Z,98760.16
2023-07-20T06:18:52.385Z,98758.91
2023-07-20T06:19:54.158Z,98764.78
2023-07-20T06:20:55.800Z,98768.38
2023-07-20T06:21:57.433Z,98761.00
2023-07-20T06:22:59.120Z,98761.88
2023-07-20T06:24:00.785Z,98767.19
2023-07-20T06:25:02.456Z,98765.56
2023-07-20T06:26:04.199Z,98759.03
2023-07-20T06:27:06.347Z,98763.75
2023-07-20T06:28:07.970Z,98764.56
2023-07-20T06:29:09.732Z,98759.94
2023-07-20T06:30:11.681Z,98761.50
2023-07-20T06:31:13.315Z,98762.25
2023-07-20T06:32:15.188Z,98763.22
2023-07-20T06:33:17.006Z,98763.97
2023-07-20T06:34:19.633Z,98760.72
2023-07-20T06:35:22.565Z,98766.88
2023-07-20T06:36:24.657Z,98762.53
2023-07-20T06:37:26.411Z,98767.25
2023-07-20T06:40:37.152Z,98768.41
2023-07-20T06:43:49.136Z,98769.06
2023-07-20T06:44:51.086Z,98770.66
2023-07-20T06:45:55.917Z,98769.09
2023-07-20T06:46:57.613Z,98769.81
2023-07-20T06:47:59.244Z,98769.16
2023-07-20T06:50:06.749Z,98767.63
2023-07-20T06:51:08.382Z,98765.34
2023-07-20T06:52:10.000Z,98758.72
2023-07-20T06:53:11.666Z,98756.97
2023-07-20T06:54:13.304Z,98765.66
2023-07-20T06:55:15.100Z,98769.00
2023-07-20T06:56:16.784Z,98762.84
2023-07-20T06:57:19.197Z,98771.84
2023-07-20T06:58:21.856Z,98775.94
2023-07-20T06:59:23.490Z,98771.16
2023-07-20T07:00:25.126Z,98770.06
2023-07-20T07:01:27.108Z,98769.94
2023-07-20T07:02:28.988Z,98775.19
2023-07-20T07:03:30.694Z,98774.34
2023-07-20T07:04:33.003Z,98772.75
2023-07-20T07:05:40.017Z,98769.44
2023-07-20T07:06:41.736Z,98775.16
2023-07-20T07:07:43.946Z,98769.19
2023-07-20T07:08:45.577Z,98777.06
2023-07-20T07:09:47.183Z,98772.47
2023-07-20T07:10:48.764Z,98775.94
2023-07-20T07:11:50.387Z,98770.06
2023-07-20T07:12:52.052Z,98771.56
2023-07-20T07:13:57.123Z,98768.72
2023-07-20T07:14:59.525Z,98772.31
2023-07-20T07:16:01.212Z,98769.06
2023-07-20T07:17:05.114Z,98767.31
2023-07-20T07:18:07.378Z,98774.47
2023-07-20T07:19:16.331Z,98771.44
2023-07-20T07:20:21.326Z,98784.44
2023-07-20T07:21:23.320Z,98777.03
2023-07-20T07:22:25.364Z,98785.22
2023-07-20T07:23:27.082Z,98787.22
2023-07-20T07:24:31.471Z,98786.78
2023-07-20T07:25:33.138Z,98785.03
2023-07-20T07:26:34.799Z,98778.47
2023-07-20T07:27:36.656Z,98780.56
2023-07-20T07:28:38.640Z,98781.75
2023-07-20T07:29:40.365Z,98779.00
2023-07-20T07:30:42.424Z,98778.50
2023-07-20T07:31:44.108Z,98775.44
2023-07-20T07:32:45.809Z,98772.13
2023-07-20T07:33:47.422Z,98776.72
2023-07-20T07:34:49.033Z,98780.13
2023-07-20T07:35:51.893Z,98779.34
2023-07-20T07:36:53.587Z,98781.31
2023-07-20T07:38:07.354Z,98779.63
2023-07-20T07:39:34.069Z,98778.72
2023-07-20T07:40:36.877Z,98771.03
2023-07-20T07:41:38.646Z,98774.97
2023-07-20T07:42:40.322Z,98780.69
2023-07-20T07:43:41.974Z,98769.91
2023-07-20T07:44:43.592Z,98770.88
2023-07-20T07:45:45.409Z,98770.91
2023-07-20T07:46:47.105Z,98777.91
2023-07-20T07:47:48.940Z,98771.28
2023-07-20T07:48:50.656Z,98774.19
2023-07-20T07:49:52.351Z,98772.13
2023-07-20T07:50:55.168Z,98774.94
2023-07-20T07:51:56.926Z,98777.47
2023-07-20T07:52:58.541Z,98770.28
2023-07-20T07:54:00.373Z,98773.31
2023-07-20T07:55:02.208Z,98780.66
2023-07-20T07:56:06.416Z,98768.91
2023-07-20T07:57:08.192Z,98770.69
2023-07-20T07:58:09.891Z,98770.34
2023-07-20T07:59:11.817Z,98773.19
2023-07-20T08:00:14.078Z,98769.50
2023-07-20T08:01:15.706Z,98768.25
2023-07-20T08:02:17.397Z,98768.53
2023-07-20T08:03:19.149Z,98771.25
2023-07-20T08:04:20.930Z,98771.31
2023-07-20T08:05:22.621Z,98768.75
2023-07-20T08:06:24.396Z,98769.38
2023-07-20T08:07:26.488Z,98778.72
2023-07-20T08:08:28.163Z,98765.16
2023-07-20T08:09:30.019Z,98764.34
2023-07-20T08:10:31.917Z,98762.03
2023-07-20T08:11:33.950Z,98765.84
2023-07-20T08:12:35.695Z,98766.13
2023-07-20T08:13:37.716Z,98764.66
2023-07-20T08:14:39.362Z,98760.19
2023-07-20T08:15:49.548Z,98761.72
2023-07-20T08:16:51.173Z,98766.44
2023-07-20T08:17:53.152Z,98762.94
2023-07-20T08:18:55.202Z,98767.44
2023-07-20T08:19:56.931Z,98765.41
2023-07-20T08:20:58.530Z,98764.59
2023-07-20T08:22:00.143Z,98761.41
2023-07-20T08:23:01.810Z,98763.84
2023-07-20T08:24:03.520Z,98769.19
2023-07-20T08:25:05.619Z,98768.81
2023-07-20T08:26:07.269Z,98768.31
2023-07-20T08:27:09.733Z,98771.56
2023-07-20T08:28:12.391Z,98772.66
2023-07-20T08:29:14.053Z,98767.78
2023-07-20T08:30:18.797Z,98769.16
2023-07-20T08:31:20.535Z,98777.28
2023-07-20T08:32:22.215Z,98774.63
2023-07-20T08:33:23.882Z,98772.50
2023-07-20T08:34:31.637Z,98769.13
2023-07-20T08:35:34.450Z,98763.63
2023-07-20T08:36:36.108Z,98771.38
2023-07-20T08:37:37.739Z,98773.22
2023-07-20T08:38:39.400Z,98770.03
2023-07-20T08:39:41.060Z,98768.41
2023-07-20T08:40:46.859Z,98777.81
2023-07-20T08:41:49.331Z,98779.75
2023-07-20T08:42:51.436Z,98781.16
2023-07-20T08:43:58.006Z,98772.81
2023-07-20T08:45:01.353Z,98775.44
2023-07-20T08:46:04.553Z,98779.34
2023-07-20T08:47:07.638Z,98782.63
2023-07-20T08:48:09.789Z,98778.06
2023-07-20T08:49:12.547Z,98777.06
2023-07-20T08:50:15.737Z,98778.78
2023-07-20T08:51:17.840Z,98770.69
2023-07-20T08:52:19.529Z,98776.72
2023-07-20T08:53:22.212Z,98767.09
2023-07-20T08:54:28.689Z,98765.56
2023-07-20T08:55:31.693Z,98771.53
2023-07-20T08:56:34.926Z,98774.22
2023-07-20T08:57:37.845Z,98778.63
2023-07-20T08:58:42.892Z,98769.75
2023-07-20T08:59:45.364Z,98771.56
2023-07-20T09:00:47.905Z,98775.16
2023-07-20T09:01:49.675Z,98774.50
2023-07-20T09:02:52.949Z,98781.53
2023-07-20T09:03:54.684Z,98780.50
2023-07-20T09:04:56.425Z,98777.47
2023-07-20T09:05:58.144Z,98775.94
2023-07-20T09:07:01.864Z,98774.31
2023-07-20T09:08:03.724Z,98781.19
2023-07-20T09:09:05.373Z,98782.38
2023-07-20T09:10:08.250Z,98781.97
2023-07-20T09:11:13.813Z,98780.41
2023-07-20T09:12:16.409Z,98776.16
2023-07-20T09:13:18.070Z,98779.88
2023-07-20T09:14:20.553Z,98776.25
2023-07-20T09:15:23.736Z,98778.72
2023-07-20T09:16:25.618Z,98775.69
2023-07-20T09:17:27.895Z,98776.25
2023-07-20T09:18:33.219Z,98770.50
2023-07-20T09:19:34.904Z,98771.63
2023-07-20T09:20:37.770Z,98771.69
2023-07-20T09:21:39.392Z,98780.22
2023-07-20T09:22:41.000Z,98776.19
2023-07-20T09:23:42.589Z,98775.31
2023-07-20T09:24:45.096Z,98779.53
2023-07-20T09:25:49.409Z,98779.53
2023-07-20T09:26:52.679Z,98777.16
2023-07-20T09:27:54.310Z,98777.28
2023-07-20T09:28:55.991Z,98775.59
2023-07-20T09:29:57.757Z,98774.06
2023-07-20T09:30:59.749Z,98776.25
2023-07-20T09:32:02.741Z,98778.16
2023-07-20T09:33:04.575Z,98768.19
2023-07-20T09:34:06.405Z,98768.88
2023-07-20T09:36:57.504Z,98765.78
2023-07-20T09:37:40.220Z,98758.91
2023-07-20T09:41:01.342Z,98752.22
2023-07-20T09:45:21.389Z,98753.59
2023-07-20T09:48:35.233Z,98758.59
2023-07-20T09:51:24.064Z,98751.78
2023-07-20T09:53:33.799Z,98758.81
2023-07-20T09:54:36.737Z,98759.91
2023-07-20T09:55:40.638Z,98752.63
2023-07-20T09:56:43.308Z,98753.25
2023-07-20T09:57:45.001Z,98751.22
2023-07-20T09:58:46.788Z,98756.38
2023-07-20T09:59:48.587Z,98745.78
2023-07-20T10:00:54.321Z,98752.19
2023-07-20T10:01:59.585Z,98754.34
2023-07-20T10:03:04.421Z,98761.16
2023-07-20T10:04:09.678Z,98762.47
2023-07-20T10:05:13.573Z,98759.34
2023-07-20T10:06:21.787Z,98759.69
2023-07-20T10:07:28.452Z,98760.19
2023-07-20T10:09:41.616Z,98754.59
2023-07-20T10:10:43.921Z,98764.06
2023-07-20T10:12:00.513Z,98760.50
2023-07-20T10:13:11.291Z,98763.31
2023-07-20T10:14:17.302Z,98754.34
2023-07-20T10:15:33.588Z,98758.75
2023-07-20T10:16:37.833Z,98757.16
2023-07-20T10:17:52.694Z,98755.16
2023-07-20T10:19:18.755Z,98750.84
2023-07-20T10:20:21.454Z,98752.41
2023-07-20T10:22:40.940Z,98747.09
2023-07-20T10:23:43.565Z,98747.84
2023-07-20T10:24:47.510Z,98746.19
2023-07-20T10:25:49.638Z,98757.38
2023-07-20T10:26:52.028Z,98751.72
2023-07-20T10:27:54.614Z,98755.34
2023-07-20T10:28:57.662Z,98759.50
2023-07-20T10:29:59.689Z,98757.66
2023-07-20T10:31:01.501Z,98753.38
2023-07-20T10:32:03.746Z,98758.59
2023-07-20T10:33:06.719Z,98761.28
2023-07-20T10:34:08.645Z,98756.56
2023-07-20T10:35:15.256Z,98749.97
2023-07-20T10:36:16.973Z,98749.97
2023-07-20T10:37:49.661Z,98752.03
2023-07-20T10:38:58.812Z,98754.38
2023-07-20T10:40:26.212Z,98760.22
2023-07-20T10:41:40.928Z,98755.38
2023-07-20T10:42:42.915Z,98749.91
2023-07-20T10:43:45.426Z,98753.59
2023-07-20T10:44:47.079Z,98751.84
2023-07-20T10:45:55.246Z,98750.53
2023-07-20T10:47:00.745Z,98749.75
2023-07-20T10:48:19.219Z,98754.16
2023-07-20T10:49:20.866Z,98752.72
2023-07-20T10:50:24.260Z,98746.59
2023-07-20T10:52:39.309Z,98746.59
2023-07-20T10:53:41.392Z,98749.00
2023-07-20T10:54:49.521Z,98748.78
2023-07-20T10:56:07.842Z,98750.44
2023-07-20T10:57:38.417Z,98744.78
2023-07-20T10:58:41.128Z,98742.81
2023-07-20T10:59:42.803Z,98737.75
2023-07-20T11:01:04.229Z,98746.84
2023-07-20T11:02:09.685Z,98745.66
2023-07-20T11:03:11.579Z,98736.56
2023-07-20T11:04:13.252Z,98741.59
2023-07-20T11:05:33.995Z,98736.56
2023-07-20T11:06:35.767Z,98736.72
2023-07-20T11:07:38.978Z,98739.19
2023-07-20T11:08:45.158Z,98740.59
2023-07-20T11:09:50.019Z,98736.81
2023-07-20T11:11:22.552Z,98732.69
2023-07-20T11:12:27.361Z,98731.94
2023-07-20T11:13:32.028Z,98729.97
2023-07-20T11:14:33.742Z,98735.63
2023-07-20T11:15:57.013Z,98739.19
2023-07-20T11:17:12.670Z,98745.28
2023-07-20T11:18:14.782Z,98746.78
2023-07-20T11:20:26.000Z,98744.03
2023-07-20T11:21:27.768Z,98740.50
2023-07-20T11:22:32.127Z,98733.84
2023-07-20T11:23:35.126Z,98734.13
2023-07-20T11:24:40.920Z,98725.53
2023-07-20T11:25:42.691Z,98721.31
2023-07-20T11:26:45.811Z,98727.13
2023-07-20T11:27:47.556Z,98717.88
2023-07-20T11:28:52.536Z,98720.94
2023-07-20T11:29:54.169Z,98720.47
2023-07-20T11:30:56.216Z,98719.09
2023-07-20T11:31:58.486Z,98725.00
2023-07-20T11:33:00.134Z,98719.81
2023-07-20T11:34:12.403Z,98721.66
2023-07-20T11:35:14.389Z,98722.06
2023-07-20T11:37:20.909Z,98715.97
2023-07-20T11:38:22.604Z,98713.13
2023-07-20T11:39:24.644Z,98718.06
2023-07-20T11:40:27.497Z,98716.50
2023-07-20T11:41:29.304Z,98723.47
2023-07-20T11:43:35.595Z,98718.13
2023-07-20T11:44:37.447Z,98718.78
2023-07-20T11:45:39.711Z,98717.72
2023-07-20T11:46:42.662Z,98723.19
2023-07-20T11:47:44.556Z,98721.31
2023-07-20T11:48:46.277Z,98720.31
2023-07-20T11:49:47.932Z,98717.25
2023-07-20T11:50:49.655Z,98719.44
2023-07-20T11:51:51.367Z,98713.78
2023-07-20T11:52:53.336Z,98714.16
2023-07-20T11:53:55.150Z,98702.69
2023-07-20T11:54:56.908Z,98705.72
2023-07-20T11:55:58.692Z,98709.41
2023-07-20T11:57:02.582Z,98709.50
2023-07-20T11:58:05.600Z,98706.16
2023-07-20T11:59:07.676Z,98709.19
2023-07-20T12:00:11.178Z,98709.03
2023-07-20T12:01:14.269Z,98706.09
2023-07-20T12:02:15.960Z,98712.63
2023-07-20T12:03:19.082Z,98709.38
2023-07-20T12:04:23.513Z,98713.97
2023-07-20T12:05:25.397Z,98711.59
2023-07-20T12:06:29.756Z,98705.69
2023-07-20T12:07:36.892Z,98704.19
2023-07-20T12:08:44.951Z,98707.78
2023-07-20T12:10:07.313Z,98691.34
2023-07-20T12:11:09.239Z,98698.84
2023-07-20T12:12:11.541Z,98689.69
2023-07-20T12:13:13.376Z,98696.47
2023-07-20T12:14:17.489Z,98692.75
2023-07-20T12:15:28.477Z,98683.84
2023-07-20T12:16:31.182Z,98693.03
2023-07-20T12:17:36.507Z,98691.47
2023-07-20T12:18:39.646Z,98691.72
2023-07-20T12:19:41.358Z,98693.88
2023-07-20T12:20:43.930Z,98689.31
2023-07-20T12:21:45.580Z,98687.44
2023-07-20T12:22:47.275Z,98690.72
2023-07-20T12:23:48.908Z,98691.81
2023-07-20T12:24:53.813Z,98680.44
2023-07-20T12:25:57.761Z,98689.69
2023-07-20T12:27:00.155Z,98684.00
2023-07-20T12:28:02.640Z,98679.38
2023-07-20T12:29:04.932Z,98685.59
2023-07-20T12:30:09.621Z,98683.69
2023-07-20T12:31:11.980Z,98684.22
2023-07-20T12:32:13.682Z,98689.38
2023-07-20T12:33:15.439Z,98681.47
2023-07-20T12:34:17.071Z,98679.28
2023-07-20T12:35:18.731Z,98672.25
2023-07-20T12:36:20.535Z,98672.28
2023-07-20T12:37:22.164Z,98677.69
2023-07-20T12:38:23.833Z,98675.78
2023-07-20T12:39:25.460Z,98673.06
2023-07-20T12:40:27.287Z,98677.41
2023-07-20T12:41:28.959Z,98673.81
2023-07-20T12:42:30.709Z,98671.41
2023-07-20T12:43:32.325Z,98670.56
2023-07-20T12:44:33.946Z,98677.34
2023-07-20T12:45:35.780Z,98680.59
2023-07-20T12:46:37.449Z,98684.09
2023-07-20T12:47:41.114Z,98676.56